Time;durP1;ratioP1;P1;durP2;ratioP2;P2;SDS_P1;SDS_P2;PMS_P1;PMS_P2;Temp;Humidity;BMP_temperature;BMP_pressure;BME280_temperature;BME280_humidity;BME280_pressure;Samples;Min_cycle;Max_cycle;Signal;HPM_P1;HPM_P2
2023/01/31 00:00:47;;;;;;;;;;;0.40;87.60;;;;;;5090196;28;19932;-88
2023/01/31 00:03:13;;;;;;;;;;;0.40;87.80;;;;;;5090170;28;19938;-88
2023/01/31 00:05:38;;;;;;;;;;;0.50;87.40;;;;;;5088888;28;20046;-88
2023/01/31 00:08:04;;;;;;;;;;;0.50;86.90;;;;;;5096160;28;19943;-88
2023/01/31 00:10:29;;;;;;;;;;;0.30;87.10;;;;;;5110336;28;20381;-88
2023/01/31 00:12:55;;;;;;;;;;;0.30;87.40;;;;;;5110358;28;19933;-89
2023/01/31 00:15:21;;;;;;;;;;;0.30;87.00;;;;;;5110215;28;19941;-89
2023/01/31 00:17:47;;;;;;;;;;;0.20;87.10;;;;;;5106352;28;19940;-88
2023/01/31 00:20:12;;;;;;;;;;;0.20;87.30;;;;;;5089833;28;19933;-88
2023/01/31 00:22:38;;;;;;;;;;;0.20;87.40;;;;;;5089829;28;19949;-88
2023/01/31 00:25:04;;;;;;;;;;;0.30;87.50;;;;;;5088526;28;20457;-87
2023/01/31 00:27:29;;;;;;;;;;;0.40;87.40;;;;;;5090498;28;20400;-88
2023/01/31 00:29:55;;;;;;;;;;;0.40;87.20;;;;;;5110006;28;20017;-88
2023/01/31 00:32:21;;;;;;;;;;;0.50;87.40;;;;;;5110042;28;19962;-88
2023/01/31 00:34:46;;;;;;;;;;;0.60;87.00;;;;;;5109749;28;20061;-88
2023/01/31 00:37:12;;;;;;;;;;;0.60;86.70;;;;;;5109910;28;19937;-88
2023/01/31 00:39:37;;;;;;;;;;;0.70;85.80;;;;;;5090892;28;19993;-88
2023/01/31 00:42:03;;;;;;;;;;;0.60;85.60;;;;;;5089486;28;20449;-88
2023/01/31 00:44:28;;;;;;;;;;;0.70;85.40;;;;;;5089439;28;19949;-88
2023/01/31 00:46:54;;;;;;;;;;;0.60;85.40;;;;;;5080051;28;20024;-88
2023/01/31 00:49:19;;;;;;;;;;;0.50;85.60;;;;;;5091477;28;19942;-88
2023/01/31 00:51:45;;;;;;;;;;;0.50;85.90;;;;;;5096098;28;20399;-88
2023/01/31 00:54:10;;;;;;;;;;;0.60;86.30;;;;;;5095917;28;19970;-88
2023/01/31 00:56:37;;;;;;;;;;;0.50;86.00;;;;;;5095865;28;19940;-89
2023/01/31 00:59:07;;;;;;;;;;;0.50;85.60;;;;;;5082418;28;20424;-88
2023/01/31 01:01:33;;;;;;;;;;;0.60;85.40;;;;;;5075642;28;19941;-88
2023/01/31 01:03:58;;;;;;;;;;;0.60;85.40;;;;;;5075622;28;20023;-88
2023/01/31 01:06:24;;;;;;;;;;;0.70;85.40;;;;;;5075530;28;19970;-88
2023/01/31 01:08:50;;;;;;;;;;;0.80;85.30;;;;;;5086562;28;20048;-88
2023/01/31 01:11:17;;;;;;;;;;;1.00;84.90;;;;;;5095742;28;19935;-88
2023/01/31 01:13:43;;;;;;;;;;;0.90;84.90;;;;;;5095639;28;19937;-88
2023/01/31 01:16:10;;;;;;;;;;;0.90;84.00;;;;;;5094246;28;19971;-88
2023/01/31 01:18:36;;;;;;;;;;;0.70;83.40;;;;;;5086074;28;19944;-87
2023/01/31 01:21:21;;;;;;;;;;;0.50;84.50;;;;;;5076193;28;19941;-89
2023/01/31 01:23:47;;;;;;;;;;;0.50;85.30;;;;;;5075228;28;20028;-88
2023/01/31 01:26:14;;;;;;;;;;;0.30;85.20;;;;;;5073859;28;19938;-88
2023/01/31 01:28:40;;;;;;;;;;;0.00;86.20;;;;;;5075105;28;19985;-87
2023/01/31 01:31:06;;;;;;;;;;;-3276.70;86.90;;;;;;5093721;28;19994;-87
2023/01/31 01:33:31;;;;;;;;;;;-3276.60;87.30;;;;;;5095196;28;20307;-88
2023/01/31 01:36:01;;;;;;;;;;;-3276.50;87.60;;;;;;5094806;28;19952;-88
2023/01/31 01:38:26;;;;;;;;;;;-3276.50;88.10;;;;;;5095191;28;19979;-87
2023/01/31 01:40:52;;;;;;;;;;;-3276.50;88.50;;;;;;5078048;28;19940;-88
2023/01/31 01:43:17;;;;;;;;;;;-3276.50;88.60;;;;;;5074815;28;19941;-87
2023/01/31 01:45:43;;;;;;;;;;;-3276.40;88.60;;;;;;5074756;28;19955;-88
2023/01/31 01:48:11;;;;;;;;;;;-3276.50;88.80;;;;;;5074753;28;19953;-87
2023/01/31 01:50:40;;;;;;;;;;;-3276.70;88.80;;;;;;5088937;28;19942;-87
2023/01/31 01:53:11;;;;;;;;;;;-3276.70;88.50;;;;;;5094815;28;19957;-88
2023/01/31 01:55:41;;;;;;;;;;;0.00;87.90;;;;;;5094702;28;19964;-88
2023/01/31 01:58:22;;;;;;;;;;;0.00;87.60;;;;;;5094048;28;19940;-88
2023/01/31 02:00:48;;;;;;;;;;;0.00;87.40;;;;;;5078851;28;19947;-88
2023/01/31 02:03:15;;;;;;;;;;;0.10;87.30;;;;;;5074389;28;20387;-88
2023/01/31 02:05:40;;;;;;;;;;;0.20;86.60;;;;;;5074338;28;20400;-88
2023/01/31 02:08:06;;;;;;;;;;;0.20;86.60;;;;;;5074355;28;19941;-87
2023/01/31 02:10:42;;;;;;;;;;;0.50;86.30;;;;;;5087298;28;19941;-88
2023/01/31 02:13:07;;;;;;;;;;;0.60;85.60;;;;;;5094749;28;20275;-88
2023/01/31 02:15:33;;;;;;;;;;;0.70;85.10;;;;;;5094657;28;20027;-88
2023/01/31 02:17:59;;;;;;;;;;;0.80;84.90;;;;;;5094425;28;20041;-88
2023/01/31 02:20:43;;;;;;;;;;;0.80;84.90;;;;;;5082081;28;20003;-88
2023/01/31 02:23:27;;;;;;;;;;;0.80;84.90;;;;;;5074056;28;19968;-88
2023/01/31 02:25:55;;;;;;;;;;;0.80;85.10;;;;;;5074009;28;20407;-88
2023/01/31 02:28:21;;;;;;;;;;;0.80;85.20;;;;;;5073941;28;19936;-88
2023/01/31 02:30:49;;;;;;;;;;;0.90;85.00;;;;;;5088511;28;19944;-88
2023/01/31 02:33:17;;;;;;;;;;;1.00;84.10;;;;;;5094120;28;19941;-87
2023/01/31 02:35:46;;;;;;;;;;;0.70;84.10;;;;;;5093848;28;19952;-88
2023/01/31 02:38:23;;;;;;;;;;;0.50;84.70;;;;;;5093998;28;19938;-88
2023/01/31 02:40:53;;;;;;;;;;;0.60;84.50;;;;;;5078694;28;20340;-88
2023/01/31 02:43:33;;;;;;;;;;;0.50;84.90;;;;;;5073664;28;19986;-88
2023/01/31 02:46:10;;;;;;;;;;;0.40;84.80;;;;;;5073635;28;20057;-87
2023/01/31 02:48:47;;;;;;;;;;;0.20;84.40;;;;;;5073603;28;19943;-88
2023/01/31 02:51:14;;;;;;;;;;;0.10;86.10;;;;;;5091130;28;20287;-88
2023/01/31 02:53:44;;;;;;;;;;;0.10;86.20;;;;;;5085787;28;19945;-88
2023/01/31 02:56:18;;;;;;;;;;;0.20;87.00;;;;;;5073290;28;19944;-87
2023/01/31 02:58:48;;;;;;;;;;;0.10;88.10;;;;;;5073409;28;19937;-88
2023/01/31 03:01:16;;;;;;;;;;;0.30;87.60;;;;;;5091172;28;19950;-88
2023/01/31 03:03:42;;;;;;;;;;;0.40;87.20;;;;;;5093606;28;19937;-88
2023/01/31 03:06:22;;;;;;;;;;;0.40;87.10;;;;;;5093529;28;19952;-88
2023/01/31 03:08:52;;;;;;;;;;;0.40;86.10;;;;;;5093292;28;20418;-88
2023/01/31 03:11:18;;;;;;;;;;;0.30;85.90;;;;;;5074761;28;19963;-88
2023/01/31 03:14:02;;;;;;;;;;;0.10;85.40;;;;;;5073227;28;19998;-88
2023/01/31 03:19:26;;;;;;;;;;;0.00;86.90;;;;;;5073850;28;20300;-88
2023/01/31 03:21:56;;;;;;;;;;;0.20;86.80;;;;;;5093313;28;19981;-88
2023/01/31 03:24:25;;;;;;;;;;;0.20;86.60;;;;;;5093069;28;19995;-88
2023/01/31 03:26:51;;;;;;;;;;;0.10;86.40;;;;;;5091981;28;19939;-88
2023/01/31 03:29:17;;;;;;;;;;;0.30;86.70;;;;;;5091946;28;20321;-88
2023/01/31 03:31:47;;;;;;;;;;;0.30;86.40;;;;;;5071791;28;19947;-88
2023/01/31 03:34:14;;;;;;;;;;;0.20;85.90;;;;;;5072825;28;20015;-88
2023/01/31 03:37:04;;;;;;;;;;;0.30;85.40;;;;;;5072965;28;19947;-88
2023/01/31 03:39:32;;;;;;;;;;;0.20;85.50;;;;;;5074098;28;20354;-88
2023/01/31 03:42:06;;;;;;;;;;;0.00;85.30;;;;;;5072962;28;19984;-88
2023/01/31 03:44:50;;;;;;;;;;;0.00;86.00;;;;;;5071668;28;20023;-88
2023/01/31 03:47:20;;;;;;;;;;;0.00;86.50;;;;;;5072937;28;19947;-87
2023/01/31 03:49:47;;;;;;;;;;;0.00;86.50;;;;;;5077167;28;19947;-88
2023/01/31 03:52:15;;;;;;;;;;;-3276.70;86.90;;;;;;5093004;28;19962;-88
2023/01/31 03:54:45;;;;;;;;;;;-3276.70;87.40;;;;;;5092905;28;20313;-88
2023/01/31 03:57:10;;;;;;;;;;;-3276.70;87.10;;;;;;5072300;28;20024;-87
2023/01/31 03:59:37;;;;;;;;;;;-3276.60;86.90;;;;;;5072971;28;20402;-88
2023/01/31 04:02:04;;;;;;;;;;;-3276.60;87.40;;;;;;5072669;28;19946;-87
2023/01/31 04:04:31;;;;;;;;;;;-3276.60;87.60;;;;;;5072701;28;19992;-88
2023/01/31 04:06:58;;;;;;;;;;;-3276.60;87.70;;;;;;5072635;28;19967;-89
2023/01/31 04:09:23;;;;;;;;;;;-3276.70;88.10;;;;;;5072969;28;19990;-88
2023/01/31 04:11:49;;;;;;;;;;;0.00;88.20;;;;;;5092914;28;19941;-88
2023/01/31 04:14:15;;;;;;;;;;;0.10;88.30;;;;;;5092767;28;19962;-88
2023/01/31 04:16:41;;;;;;;;;;;0.30;88.10;;;;;;5092804;28;19939;-88
2023/01/31 04:19:06;;;;;;;;;;;0.50;87.90;;;;;;5092781;28;19940;-87
2023/01/31 04:21:32;;;;;;;;;;;0.40;87.20;;;;;;5075332;28;19946;-87
2023/01/31 04:23:57;;;;;;;;;;;0.30;87.00;;;;;;5076259;28;19988;-87
2023/01/31 04:26:23;;;;;;;;;;;0.30;87.00;;;;;;5075029;28;20036;-88
2023/01/31 04:28:49;;;;;;;;;;;0.20;87.20;;;;;;5076258;28;19942;-88
2023/01/31 04:31:14;;;;;;;;;;;0.30;87.10;;;;;;5091678;28;19986;-88
2023/01/31 04:33:40;;;;;;;;;;;0.20;86.80;;;;;;5096423;28;19983;-87
2023/01/31 04:36:06;;;;;;;;;;;0.20;86.70;;;;;;5096176;28;19953;-88
2023/01/31 04:38:31;;;;;;;;;;;0.10;86.50;;;;;;5096396;28;19942;-88
2023/01/31 04:40:57;;;;;;;;;;;0.10;86.80;;;;;;5083105;28;19948;-87
2023/01/31 04:43:22;;;;;;;;;;;0.00;87.00;;;;;;5075965;28;19933;-87
2023/01/31 04:45:48;;;;;;;;;;;0.00;87.60;;;;;;5075948;28;19974;-88
2023/01/31 04:48:13;;;;;;;;;;;0.00;88.50;;;;;;5075893;28;19971;-88
2023/01/31 04:50:39;;;;;;;;;;;0.00;88.80;;;;;;5085976;28;19954;-87
2023/01/31 04:53:07;;;;;;;;;;;0.00;88.90;;;;;;5096010;28;19962;-87
2023/01/31 04:55:33;;;;;;;;;;;0.00;88.60;;;;;;5094554;28;19954;-87
2023/01/31 04:57:58;;;;;;;;;;;0.00;88.20;;;;;;5095931;28;19942;-88
2023/01/31 05:00:24;;;;;;;;;;;0.00;88.10;;;;;;5087702;28;20405;-87
2023/01/31 05:02:50;;;;;;;;;;;0.00;88.00;;;;;;5075630;28;20434;-88
2023/01/31 05:05:16;;;;;;;;;;;0.00;87.80;;;;;;5075647;28;19941;-87
2023/01/31 05:07:43;;;;;;;;;;;0.00;87.70;;;;;;5075555;28;19944;-88
2023/01/31 05:10:08;;;;;;;;;;;0.00;87.70;;;;;;5080697;28;19951;-88
2023/01/31 05:12:34;;;;;;;;;;;-3276.70;88.10;;;;;;5095636;28;19933;-87
2023/01/31 05:15:00;;;;;;;;;;;-3276.70;88.60;;;;;;5095596;28;19945;-88
2023/01/31 05:17:28;;;;;;;;;;;-3276.60;88.90;;;;;;5095611;28;19937;-87
2023/01/31 05:19:57;;;;;;;;;;;-3276.50;89.40;;;;;;5090684;28;20308;-87
2023/01/31 05:22:23;;;;;;;;;;;-3276.50;89.40;;;;;;5075567;28;19976;-87
2023/01/31 05:24:49;;;;;;;;;;;-3276.40;89.30;;;;;;5075264;28;19945;-87
2023/01/31 05:27:15;;;;;;;;;;;-3276.40;89.20;;;;;;5080347;28;19944;-87
2023/01/31 05:29:41;;;;;;;;;;;-3276.40;89.20;;;;;;5095607;28;19937;-87
2023/01/31 05:32:07;;;;;;;;;;;-3276.40;89.10;;;;;;5095248;28;20415;-87
2023/01/31 05:34:33;;;;;;;;;;;-3276.40;89.10;;;;;;5093745;28;19977;-87
2023/01/31 05:36:59;;;;;;;;;;;-3276.40;89.10;;;;;;5092430;28;20031;-87
2023/01/31 05:39:25;;;;;;;;;;;-3276.40;89.00;;;;;;5074951;28;20007;-87
2023/01/31 05:41:51;;;;;;;;;;;-3276.60;88.90;;;;;;5073612;28;19955;-88
2023/01/31 05:44:17;;;;;;;;;;;-3276.60;88.50;;;;;;5073600;28;19941;-87
2023/01/31 05:46:43;;;;;;;;;;;-3276.60;88.50;;;;;;5075071;28;19988;-88
2023/01/31 05:49:09;;;;;;;;;;;-3276.60;89.10;;;;;;5094982;28;19985;-87
2023/01/31 05:51:35;;;;;;;;;;;-3276.60;89.20;;;;;;5094913;28;19936;-88
2023/01/31 05:54:00;;;;;;;;;;;-3276.60;89.20;;;;;;5093541;28;20015;-87
2023/01/31 05:56:26;;;;;;;;;;;-3276.60;89.30;;;;;;5094622;28;20021;-87
2023/01/31 05:58:51;;;;;;;;;;;-3276.70;88.80;;;;;;5081372;28;19941;-87
2023/01/31 06:01:17;;;;;;;;;;;-3276.70;88.20;;;;;;5079957;28;19941;-88
2023/01/31 06:03:43;;;;;;;;;;;0.00;88.20;;;;;;5074497;28;20033;-88
2023/01/31 06:06:08;;;;;;;;;;;0.00;87.90;;;;;;5075430;28;19950;-88
2023/01/31 06:08:34;;;;;;;;;;;0.00;87.70;;;;;;5088386;28;19948;-88
2023/01/31 06:11:00;;;;;;;;;;;0.00;88.00;;;;;;5095146;28;19953;-88
2023/01/31 06:13:26;;;;;;;;;;;0.00;88.00;;;;;;5077508;28;19940;-89
2023/01/31 06:15:51;;;;;;;;;;;0.20;87.90;;;;;;5088681;28;19967;-88
2023/01/31 06:18:17;;;;;;;;;;;0.20;87.70;;;;;;5091845;28;19950;-88
2023/01/31 06:20:42;;;;;;;;;;;0.40;87.50;;;;;;5089560;28;19956;-85
2023/01/31 06:23:08;;;;;;;;;;;0.40;87.10;;;;;;5081501;28;19959;-86
2023/01/31 06:25:33;;;;;;;;;;;0.30;86.90;;;;;;5082657;28;19975;-85
2023/01/31 06:27:59;;;;;;;;;;;0.30;86.90;;;;;;5091031;28;19943;-84
2023/01/31 06:30:24;;;;;;;;;;;0.20;86.80;;;;;;5084047;28;20323;-85
2023/01/31 06:32:50;;;;;;;;;;;0.20;86.80;;;;;;5080116;28;19948;-84
2023/01/31 06:35:15;;;;;;;;;;;0.20;87.00;;;;;;5076259;28;19993;-85
2023/01/31 06:37:41;;;;;;;;;;;0.20;86.90;;;;;;5078326;28;19984;-86
2023/01/31 06:40:07;;;;;;;;;;;0.10;87.10;;;;;;5079996;28;19967;-85
2023/01/31 06:42:32;;;;;;;;;;;0.20;87.40;;;;;;5080906;28;19941;-85
2023/01/31 06:44:58;;;;;;;;;;;0.30;87.40;;;;;;5081081;28;19986;-85
2023/01/31 06:47:23;;;;;;;;;;;0.40;87.30;;;;;;5073862;28;20362;-85
2023/01/31 06:49:49;;;;;;;;;;;0.40;87.20;;;;;;5078335;28;19992;-86
2023/01/31 06:52:14;;;;;;;;;;;0.40;87.40;;;;;;5079482;28;19973;-86
2023/01/31 06:54:40;;;;;;;;;;;0.50;87.50;;;;;;5083706;28;19967;-85
2023/01/31 06:57:06;;;;;;;;;;;0.60;87.40;;;;;;5087339;28;19988;-85
2023/01/31 06:59:31;;;;;;;;;;;0.70;86.80;;;;;;5081445;28;19938;-86
2023/01/31 07:01:57;;;;;;;;;;;0.80;85.90;;;;;;5085211;28;19958;-84
2023/01/31 07:04:22;;;;;;;;;;;0.80;85.70;;;;;;5084490;28;19956;-85
2023/01/31 07:06:48;;;;;;;;;;;0.70;85.30;;;;;;5077120;28;19942;-85
2023/01/31 07:09:13;;;;;;;;;;;0.70;85.60;;;;;;5083701;28;20288;-86
2023/01/31 07:11:39;;;;;;;;;;;0.80;85.00;;;;;;5083752;28;20309;-86
2023/01/31 07:14:04;;;;;;;;;;;1.00;84.90;;;;;;5086987;28;20339;-85
2023/01/31 07:16:30;;;;;;;;;;;1.00;84.70;;;;;;5079341;28;19960;-85
2023/01/31 07:18:55;;;;;;;;;;;1.00;84.50;;;;;;5079140;28;19951;-86
2023/01/31 07:21:22;;;;;;;;;;;0.90;84.60;;;;;;5084541;28;20034;-86
2023/01/31 07:23:48;;;;;;;;;;;0.90;84.50;;;;;;5090792;28;19941;-86
2023/01/31 07:26:13;;;;;;;;;;;1.10;84.60;;;;;;5083365;28;19947;-86
2023/01/31 07:28:39;;;;;;;;;;;1.10;84.50;;;;;;5080909;28;20914;-86
2023/01/31 07:31:05;;;;;;;;;;;1.40;84.20;;;;;;5074265;28;19989;-85
2023/01/31 07:33:31;;;;;;;;;;;1.50;83.70;;;;;;5073930;28;19957;-85
2023/01/31 07:35:57;;;;;;;;;;;1.70;82.80;;;;;;5112732;22;19974;-84
2023/01/31 07:38:22;;;;;;;;;;;1.50;81.90;;;;;;5104548;28;20353;-84
2023/01/31 07:40:48;;;;;;;;;;;1.40;82.40;;;;;;5109361;28;20366;-84
2023/01/31 07:43:13;;;;;;;;;;;1.40;83.00;;;;;;5107452;28;20354;-84
2023/01/31 07:45:41;;;;;;;;;;;1.40;82.90;;;;;;5097311;28;20400;-84
2023/01/31 07:48:07;;;;;;;;;;;1.40;83.10;;;;;;5106939;28;20001;-85
2023/01/31 07:50:32;;;;;;;;;;;1.40;83.10;;;;;;5106035;28;19949;-84
2023/01/31 07:52:58;;;;;;;;;;;1.30;83.50;;;;;;5101488;28;19957;-85
2023/01/31 07:55:24;;;;;;;;;;;1.40;83.60;;;;;;5101041;28;19955;-85
2023/01/31 07:57:49;;;;;;;;;;;1.40;83.60;;;;;;5087271;28;19951;-85
2023/01/31 08:05:46;;;;;;;;;;;2.10;82.40;;;;;;5103419;28;19961;-86
2023/01/31 08:08:12;;;;;;;;;;;2.30;81.60;;;;;;5096378;28;20029;-85
2023/01/31 08:10:38;;;;;;;;;;;2.40;81.30;;;;;;5087448;28;20089;-85
2023/01/31 08:13:05;;;;;;;;;;;2.40;80.60;;;;;;5086677;28;19983;-88
2023/01/31 08:15:30;;;;;;;;;;;2.30;81.00;;;;;;5097588;28;19967;-88
2023/01/31 08:17:56;;;;;;;;;;;2.20;81.00;;;;;;5096929;28;19942;-88
2023/01/31 08:20:21;;;;;;;;;;;2.20;82.20;;;;;;5089554;28;20000;-88
2023/01/31 08:22:47;;;;;;;;;;;2.20;83.00;;;;;;5097691;28;19995;-88
2023/01/31 08:25:13;;;;;;;;;;;2.20;82.80;;;;;;5089409;28;19945;-88
2023/01/31 08:27:38;;;;;;;;;;;2.20;82.80;;;;;;5103136;28;20347;-89
2023/01/31 08:30:04;;;;;;;;;;;2.20;83.10;;;;;;5092856;28;19949;-89
2023/01/31 08:32:30;;;;;;;;;;;2.30;83.10;;;;;;5100703;28;20055;-88
2023/01/31 08:34:55;;;;;;;;;;;2.50;82.40;;;;;;5088774;28;20380;-88
2023/01/31 08:37:21;;;;;;;;;;;2.50;82.10;;;;;;5096868;28;19941;-88
2023/01/31 08:39:47;;;;;;;;;;;2.40;82.20;;;;;;5096141;28;19987;-87
2023/01/31 08:42:13;;;;;;;;;;;2.50;82.40;;;;;;5087533;28;19955;-88
2023/01/31 08:44:38;;;;;;;;;;;2.60;82.30;;;;;;5101176;28;19942;-88
2023/01/31 08:47:04;;;;;;;;;;;2.70;82.60;;;;;;5096448;28;20418;-88
2023/01/31 08:49:29;;;;;;;;;;;2.90;81.90;;;;;;5094364;28;20507;-88
2023/01/31 08:51:55;;;;;;;;;;;3.00;81.70;;;;;;5104771;27;19992;-88
2023/01/31 08:54:21;;;;;;;;;;;3.20;82.40;;;;;;5090548;28;19947;-88
2023/01/31 08:56:46;;;;;;;;;;;3.20;80.80;;;;;;5091441;28;19953;-88
2023/01/31 08:59:12;;;;;;;;;;;3.40;80.80;;;;;;5098227;28;20490;-89
2023/01/31 09:01:37;;;;;;;;;;;3.50;81.30;;;;;;5087781;28;19951;-87
2023/01/31 09:04:03;;;;;;;;;;;3.70;81.60;;;;;;5091522;28;20137;-88
2023/01/31 09:06:28;;;;;;;;;;;3.80;79.80;;;;;;5088362;28;19960;-88
2023/01/31 09:08:55;;;;;;;;;;;3.90;79.50;;;;;;5098288;28;20324;-87
2023/01/31 09:11:21;;;;;;;;;;;4.00;78.80;;;;;;5093872;28;19943;-88
2023/01/31 09:13:50;;;;;;;;;;;4.20;78.90;;;;;;5092139;28;19939;-89
2023/01/31 09:16:15;;;;;;;;;;;4.20;79.30;;;;;;5096475;28;20052;-87
2023/01/31 09:18:41;;;;;;;;;;;4.40;77.80;;;;;;5104851;28;20082;-87
2023/01/31 09:21:15;;;;;;;;;;;4.50;77.50;;;;;;5088690;28;19943;-87
2023/01/31 09:23:41;;;;;;;;;;;4.60;77.60;;;;;;5087119;28;19983;-87
2023/01/31 09:26:07;;;;;;;;;;;4.70;77.70;;;;;;5095536;28;20472;-87
2023/01/31 09:28:33;;;;;;;;;;;4.70;78.10;;;;;;5095557;28;20314;-87
2023/01/31 09:33:24;;;;;;;;;;;4.90;78.30;;;;;;5108993;27;19949;-88
2023/01/31 09:36:00;;;;;;;;;;;5.10;76.40;;;;;;5086621;28;20427;-87
2023/01/31 09:38:26;;;;;;;;;;;5.30;75.70;;;;;;5090930;28;19965;-87
2023/01/31 09:40:52;;;;;;;;;;;5.40;75.60;;;;;;5085280;28;20422;-87
2023/01/31 09:43:20;;;;;;;;;;;5.40;75.10;;;;;;5111756;28;19987;-87
2023/01/31 09:45:47;;;;;;;;;;;5.40;74.30;;;;;;5088956;28;19943;-87
2023/01/31 09:48:16;;;;;;;;;;;5.40;74.90;;;;;;5088502;28;20433;-87
2023/01/31 09:50:45;;;;;;;;;;;5.50;75.30;;;;;;5095658;28;19953;-87
2023/01/31 09:53:12;;;;;;;;;;;5.60;76.40;;;;;;5090455;28;20349;-87
2023/01/31 09:55:45;;;;;;;;;;;5.80;77.10;;;;;;5092759;28;19950;-87
2023/01/31 09:58:20;;;;;;;;;;;6.00;75.70;;;;;;5087606;28;20438;-87
2023/01/31 10:00:47;;;;;;;;;;;6.00;74.90;;;;;;5083510;28;19948;-87
2023/01/31 10:03:45;;;;;;;;;;;6.20;75.50;;;;;;5087374;28;19940;-87
2023/01/31 10:06:18;;;;;;;;;;;6.20;75.90;;;;;;5085081;28;20033;-87
2023/01/31 10:08:57;;;;;;;;;;;6.40;75.00;;;;;;5085104;28;19941;-87
2023/01/31 10:11:32;;;;;;;;;;;6.40;75.50;;;;;;5083924;28;20417;-87
2023/01/31 10:14:18;;;;;;;;;;;6.50;74.30;;;;;;5094512;28;20033;-87
2023/01/31 10:16:59;;;;;;;;;;;6.60;74.20;;;;;;5084941;28;20448;-87
2023/01/31 10:19:27;;;;;;;;;;;6.80;74.60;;;;;;5087871;28;19948;-87
2023/01/31 10:21:56;;;;;;;;;;;6.90;73.20;;;;;;5079604;28;19949;-87
2023/01/31 10:24:53;;;;;;;;;;;7.00;71.50;;;;;;5088935;28;20320;-87
2023/01/31 10:27:41;;;;;;;;;;;7.10;72.00;;;;;;5064643;28;19993;-87
2023/01/31 10:30:13;;;;;;;;;;;7.20;69.70;;;;;;5089598;28;19941;-87
2023/01/31 10:32:47;;;;;;;;;;;7.20;70.70;;;;;;5091028;28;19952;-87
2023/01/31 10:35:22;;;;;;;;;;;7.20;70.80;;;;;;5087246;28;19966;-85
2023/01/31 10:37:56;;;;;;;;;;;7.30;71.40;;;;;;5086380;28;19948;-85
2023/01/31 10:40:29;;;;;;;;;;;7.50;72.20;;;;;;5085619;28;19948;-85
2023/01/31 10:43:01;;;;;;;;;;;7.60;72.40;;;;;;5083233;28;20020;-85
2023/01/31 10:45:29;;;;;;;;;;;7.70;70.30;;;;;;5072367;28;19956;-85
2023/01/31 10:48:07;;;;;;;;;;;7.80;71.20;;;;;;5074624;28;19949;-84
2023/01/31 10:50:47;;;;;;;;;;;7.90;71.70;;;;;;5076716;28;19944;-84
2023/01/31 10:53:31;;;;;;;;;;;7.90;70.50;;;;;;5070555;28;19970;-84
2023/01/31 10:56:09;;;;;;;;;;;7.70;69.10;;;;;;5071670;28;19951;-84
2023/01/31 10:58:35;;;;;;;;;;;7.70;70.40;;;;;;5079789;28;20418;-86
2023/01/31 11:01:02;;;;;;;;;;;7.80;71.00;;;;;;5074961;28;20118;-85
2023/01/31 11:03:27;;;;;;;;;;;7.90;71.30;;;;;;5070728;28;19944;-84
2023/01/31 11:05:54;;;;;;;;;;;8.20;70.30;;;;;;5069928;28;19992;-86
2023/01/31 11:08:26;;;;;;;;;;;8.30;67.10;;;;;;5074709;28;20417;-87
2023/01/31 11:10:53;;;;;;;;;;;8.10;65.80;;;;;;5079166;28;20003;-87
2023/01/31 11:13:19;;;;;;;;;;;8.10;67.80;;;;;;5076461;28;19965;-88
2023/01/31 11:15:47;;;;;;;;;;;8.40;67.60;;;;;;5075193;28;19945;-87
2023/01/31 11:18:35;;;;;;;;;;;8.40;66.90;;;;;;5075088;28;20438;-87
2023/01/31 11:21:01;;;;;;;;;;;8.50;66.60;;;;;;5089467;28;19978;-87
2023/01/31 11:23:29;;;;;;;;;;;8.70;66.50;;;;;;5095232;28;19934;-88
2023/01/31 11:25:55;;;;;;;;;;;8.90;66.80;;;;;;5095290;28;20317;-88
2023/01/31 11:28:37;;;;;;;;;;;9.00;64.80;;;;;;5093928;28;19939;-87
2023/01/31 11:31:07;;;;;;;;;;;9.00;65.30;;;;;;5079664;28;19943;-87
2023/01/31 11:33:40;;;;;;;;;;;9.00;65.00;;;;;;5074887;28;19943;-87
2023/01/31 11:36:15;;;;;;;;;;;8.90;66.90;;;;;;5074753;28;19962;-88
2023/01/31 11:38:41;;;;;;;;;;;9.10;65.20;;;;;;5074799;28;19944;-87
2023/01/31 11:41:26;;;;;;;;;;;9.10;65.40;;;;;;5075151;28;20433;-87
2023/01/31 11:44:10;;;;;;;;;;;9.10;65.10;;;;;;5074906;28;19951;-87
2023/01/31 11:46:41;;;;;;;;;;;9.30;65.10;;;;;;5074616;28;19947;-87
2023/01/31 11:49:11;;;;;;;;;;;9.40;64.90;;;;;;5074581;28;19933;-87
2023/01/31 11:51:39;;;;;;;;;;;9.60;65.90;;;;;;5078442;28;20030;-88
2023/01/31 11:54:05;;;;;;;;;;;9.60;65.60;;;;;;5074360;28;20061;-88
2023/01/31 11:56:33;;;;;;;;;;;9.80;65.20;;;;;;5073716;28;19982;-88
2023/01/31 11:59:05;;;;;;;;;;;9.90;64.80;;;;;;5074442;28;19931;-88
2023/01/31 12:01:31;;;;;;;;;;;10.00;65.20;;;;;;5092490;28;19945;-88
2023/01/31 12:03:58;;;;;;;;;;;10.40;63.30;;;;;;5094633;28;19947;-88
2023/01/31 12:06:26;;;;;;;;;;;10.40;63.30;;;;;;5094411;28;19936;-87
2023/01/31 12:08:55;;;;;;;;;;;10.70;62.30;;;;;;5094344;28;19951;-88
2023/01/31 12:11:28;;;;;;;;;;;11.30;59.30;;;;;;5079579;28;19968;-88
2023/01/31 12:14:01;;;;;;;;;;;11.90;57.70;;;;;;5074136;28;19937;-88
2023/01/31 12:16:29;;;;;;;;;;;12.40;55.50;;;;;;5072011;28;19959;-88
2023/01/31 12:19:12;;;;;;;;;;;12.90;53.90;;;;;;5071340;28;19940;-88
2023/01/31 12:21:43;;;;;;;;;;;13.50;52.60;;;;;;5078309;28;19945;-88
2023/01/31 12:24:27;;;;;;;;;;;13.30;52.10;;;;;;5073088;28;19949;-88
2023/01/31 12:27:01;;;;;;;;;;;13.30;52.30;;;;;;5075610;28;20415;-88
2023/01/31 12:29:29;;;;;;;;;;;13.50;52.10;;;;;;5071846;28;19944;-88
2023/01/31 12:31:55;;;;;;;;;;;13.80;51.30;;;;;;5071888;28;20061;-88
2023/01/31 12:34:28;;;;;;;;;;;13.90;51.30;;;;;;5067319;28;20565;-88
2023/01/31 12:37:05;;;;;;;;;;;14.10;51.50;;;;;;5073691;28;19943;-88
2023/01/31 12:39:55;;;;;;;;;;;13.60;52.50;;;;;;5071956;28;19994;-88
2023/01/31 12:42:23;;;;;;;;;;;13.40;52.20;;;;;;5070594;28;19949;-88
2023/01/31 12:45:07;;;;;;;;;;;13.40;53.40;;;;;;5070673;28;19952;-88
2023/01/31 12:47:44;;;;;;;;;;;13.40;52.70;;;;;;5072587;28;20042;-88
2023/01/31 12:50:24;;;;;;;;;;;13.40;52.70;;;;;;5070097;28;20400;-88
2023/01/31 12:52:50;;;;;;;;;;;13.60;52.40;;;;;;5070235;28;20422;-88
2023/01/31 12:55:15;;;;;;;;;;;13.20;52.40;;;;;;5073666;28;20041;-88
2023/01/31 12:57:41;;;;;;;;;;;12.80;53.60;;;;;;5079487;28;19944;-88
2023/01/31 13:00:09;;;;;;;;;;;12.60;54.90;;;;;;5076271;28;19943;-88
2023/01/31 13:02:57;;;;;;;;;;;12.50;56.10;;;;;;5069025;28;19974;-88
2023/01/31 13:05:25;;;;;;;;;;;12.30;55.10;;;;;;5074410;28;20022;-88
2023/01/31 13:07:55;;;;;;;;;;;12.20;55.90;;;;;;5073898;28;19940;-88
2023/01/31 13:10:28;;;;;;;;;;;12.40;55.80;;;;;;5073281;28;19999;-88
2023/01/31 13:12:54;;;;;;;;;;;12.90;54.60;;;;;;5072193;28;20048;-88
2023/01/31 13:15:26;;;;;;;;;;;13.40;53.90;;;;;;5072091;28;20038;-88
2023/01/31 13:17:56;;;;;;;;;;;14.00;51.90;;;;;;5076586;28;19944;-88
2023/01/31 13:20:21;;;;;;;;;;;14.40;50.60;;;;;;5070955;28;19960;-88
2023/01/31 13:22:49;;;;;;;;;;;14.40;51.10;;;;;;5076321;28;19947;-88
2023/01/31 13:25:19;;;;;;;;;;;14.40;50.80;;;;;;5071967;28;19959;-89
2023/01/31 13:27:51;;;;;;;;;;;14.20;51.40;;;;;;5072748;28;20408;-88
2023/01/31 13:30:26;;;;;;;;;;;14.20;52.40;;;;;;5069982;28;19942;-89
2023/01/31 13:32:53;;;;;;;;;;;14.40;51.30;;;;;;5075185;28;19973;-89
2023/01/31 13:35:24;;;;;;;;;;;14.70;50.00;;;;;;5069656;28;19948;-88
2023/01/31 13:37:53;;;;;;;;;;;14.90;49.50;;;;;;5075342;28;19948;-88
2023/01/31 13:40:20;;;;;;;;;;;14.50;50.10;;;;;;5069022;28;20396;-88
2023/01/31 13:42:46;;;;;;;;;;;14.10;50.60;;;;;;5069591;28;19947;-88
2023/01/31 13:45:20;;;;;;;;;;;13.90;51.50;;;;;;5067433;28;19951;-88
2023/01/31 13:47:48;;;;;;;;;;;13.90;51.90;;;;;;5066888;28;19958;-88
2023/01/31 13:50:29;;;;;;;;;;;13.70;51.80;;;;;;5072040;28;19949;-86
2023/01/31 13:53:00;;;;;;;;;;;13.50;52.80;;;;;;5074995;28;20061;-86
2023/01/31 13:55:37;;;;;;;;;;;13.80;52.70;;;;;;5071258;28;19947;-86
2023/01/31 13:58:05;;;;;;;;;;;14.20;52.80;;;;;;5071152;28;19941;-87
2023/01/31 14:00:33;;;;;;;;;;;14.50;52.60;;;;;;5071392;28;19944;-88
2023/01/31 14:03:03;;;;;;;;;;;14.70;51.50;;;;;;5072108;28;20408;-88
2023/01/31 14:05:50;;;;;;;;;;;15.20;50.00;;;;;;5071715;28;19947;-88
2023/01/31 14:08:27;;;;;;;;;;;15.20;49.80;;;;;;5071565;28;19973;-88
2023/01/31 14:10:54;;;;;;;;;;;15.10;50.50;;;;;;5069848;28;19954;-87
2023/01/31 14:13:24;;;;;;;;;;;14.50;51.90;;;;;;5063779;28;20447;-88
2023/01/31 14:15:51;;;;;;;;;;;14.20;53.00;;;;;;5067264;28;19988;-88
2023/01/31 14:18:34;;;;;;;;;;;13.80;52.90;;;;;;5081350;28;20435;-88
2023/01/31 14:21:38;;;;;;;;;;;13.60;54.40;;;;;;5080156;28;19992;-88
2023/01/31 14:24:05;;;;;;;;;;;13.50;54.90;;;;;;5078625;28;20033;-88
2023/01/31 14:26:42;;;;;;;;;;;13.70;54.60;;;;;;5075064;28;19945;-87
2023/01/31 14:29:09;;;;;;;;;;;13.30;55.80;;;;;;5068732;28;19959;-86
2023/01/31 14:31:34;;;;;;;;;;;12.80;56.00;;;;;;5070234;28;19980;-88
2023/01/31 14:34:01;;;;;;;;;;;12.50;57.90;;;;;;5072645;28;19941;-88
2023/01/31 14:36:50;;;;;;;;;;;12.60;57.60;;;;;;5074925;28;19947;-88
2023/01/31 14:39:24;;;;;;;;;;;12.90;56.60;;;;;;5063363;28;20017;-86
2023/01/31 14:41:55;;;;;;;;;;;12.60;57.40;;;;;;5066286;28;19952;-86